createdAt,value
2019-04-11T00:03:57.835Z,101562.69
2019-04-11T00:08:01.734Z,101567.08
2019-04-11T00:12:04.504Z,101570.05
2019-04-11T00:16:07.396Z,101577.25
2019-04-11T00:20:09.965Z,101579.00
2019-04-11T00:24:12.511Z,101574.34
2019-04-11T00:28:15.344Z,101584.05
2019-04-11T00:32:19.084Z,101590.77
2019-04-11T00:36:22.234Z,101585.27
2019-04-11T00:40:26.883Z,101588.83
2019-04-11T00:44:30.624Z,101588.94
2019-04-11T00:48:33.476Z,101597.59
2019-04-11T00:52:37.149Z,101599.80
2019-04-11T00:56:40.210Z,101599.98
2019-04-11T01:00:43.045Z,101605.80
2019-04-11T01:04:45.752Z,101608.41
2019-04-11T01:08:48.322Z,101607.53
2019-04-11T01:12:51.825Z,101610.73
2019-04-11T01:16:57.400Z,101612.90
2019-04-11T01:20:59.900Z,101617.70
2019-04-11T01:25:02.432Z,101625.06
2019-04-11T01:29:05.387Z,101621.98
2019-04-11T01:33:08.103Z,101632.91
2019-04-11T01:37:11.400Z,101631.69
2019-04-11T01:41:14.109Z,101635.19
2019-04-11T01:45:19.102Z,101647.85
2019-04-11T01:49:24.028Z,101652.22
2019-04-11T01:53:26.863Z,101645.38
2019-04-11T01:57:29.710Z,101646.59
2019-04-11T02:01:45.216Z,101651.36
2019-04-11T02:05:49.579Z,101649.20
2019-04-11T02:09:52.608Z,101652.29
2019-04-11T02:14:05.154Z,101657.14
2019-04-11T02:17:59.560Z,101652.81
2019-04-11T02:22:24.397Z,101649.31
2019-04-11T02:26:29.713Z,101648.13
2019-04-11T02:30:34.043Z,101651.13
2019-04-11T02:34:39.718Z,101656.77
2019-04-11T02:38:42.075Z,101648.98
2019-04-11T02:42:45.690Z,101653.37
2019-04-11T02:47:00.268Z,101663.33
2019-04-11T02:50:54.288Z,101661.59
2019-04-11T02:54:57.017Z,101659.44
2019-04-11T02:59:02.290Z,101665.13
2019-04-11T03:03:07.523Z,101662.02
2019-04-11T03:07:12.300Z,101666.33
2019-04-11T03:11:16.733Z,101665.05
2019-04-11T03:15:31.701Z,101667.70
2019-04-11T03:19:40.348Z,101669.45
2019-04-11T03:23:30.931Z,101667.75
2019-04-11T03:27:36.958Z,101666.93
2019-04-11T03:32:17.649Z,101666.83
2019-04-11T03:37:00.717Z,101671.58
2019-04-11T03:40:06.075Z,101668.95
2019-04-11T03:44:04.450Z,101675.87
2019-04-11T03:48:12.589Z,101684.05
2019-04-11T03:52:03.584Z,101688.38
2019-04-11T03:56:07.670Z,101683.12
2019-04-11T04:00:14.288Z,101691.77
2019-04-11T04:04:18.857Z,101696.45
2019-04-11T04:08:20.781Z,101700.30
2019-04-11T04:12:25.084Z,101701.50
2019-04-11T04:16:47.730Z,101702.27
2019-04-11T04:20:55.011Z,101697.84
2019-04-11T04:24:58.953Z,101702.91
2019-04-11T04:29:02.015Z,101705.02
2019-04-11T04:33:05.164Z,101708.91
2019-04-11T04:37:09.581Z,101703.49
2019-04-11T04:41:26.795Z,101709.52
2019-04-11T04:45:21.351Z,101714.13
2019-04-11T04:49:24.179Z,101706.59
2019-04-11T04:53:28.236Z,101715.49
2019-04-11T04:57:31.802Z,101701.09
2019-04-11T05:01:37.212Z,101710.86
2019-04-11T05:05:39.823Z,101718.05
2019-04-11T05:09:43.734Z,101717.87
2019-04-11T05:13:50.298Z,101713.29
2019-04-11T05:17:51.233Z,101713.06
2019-04-11T05:21:54.104Z,101712.56
2019-04-11T05:25:57.137Z,101722.67
2019-04-11T05:30:00.782Z,101725.30
2019-04-11T05:34:03.551Z,101724.72
2019-04-11T05:38:05.983Z,101724.31
2019-04-11T05:42:09.196Z,101722.62
2019-04-11T05:46:28.189Z,101724.38
2019-04-11T05:50:24.634Z,101723.22
2019-04-11T05:54:29.019Z,101712.48
2019-04-11T05:58:32.487Z,101719.58
2019-04-11T06:02:41.607Z,101719.02
2019-04-11T06:06:52.733Z,101718.95
2019-04-11T06:11:24.148Z,101723.05
2019-04-11T06:15:31.265Z,101715.39
2019-04-11T06:19:50.858Z,101716.89
2019-04-11T06:24:12.123Z,101712.25
2019-04-11T06:28:22.241Z,101714.44
2019-04-11T06:32:56.281Z,101713.42
2019-04-11T06:37:14.077Z,101723.78
2019-04-11T06:41:38.842Z,101732.10
2019-04-11T06:45:58.907Z,101731.06
2019-04-11T06:50:15.309Z,101732.98
2019-04-11T06:54:39.381Z,101735.22
2019-04-11T06:58:47.948Z,101734.28
2019-04-11T07:02:57.128Z,101737.09
2019-04-11T07:07:00.192Z,101733.97
2019-04-11T07:11:05.828Z,101733.77
2019-04-11T07:15:27.239Z,101731.00
2019-04-11T07:19:48.045Z,101731.97
2019-04-11T07:24:08.416Z,101732.30
2019-04-11T07:28:20.885Z,101737.17
2019-04-11T07:32:25.800Z,101735.09
2019-04-11T07:36:46.245Z,101738.89
2019-04-11T07:41:08.859Z,101749.39
2019-04-11T07:45:17.382Z,101738.66
2019-04-11T07:49:24.472Z,101737.81
2019-04-11T07:53:28.550Z,101736.88
2019-04-11T07:57:38.387Z,101736.38
2019-04-11T08:02:18.778Z,101744.52
2019-04-11T08:06:52.156Z,101745.13
2019-04-11T08:11:12.242Z,101744.27
2019-04-11T08:15:33.506Z,101750.96
2019-04-11T08:19:53.743Z,101741.95
2019-04-11T08:23:58.241Z,101747.70
2019-04-11T08:28:07.814Z,101733.08
2019-04-11T08:32:27.572Z,101733.42
2019-04-11T08:36:47.308Z,101729.31
2019-04-11T08:41:09.604Z,101733.68
2019-04-11T08:45:14.778Z,101736.55
2019-04-11T08:49:39.722Z,101730.92
2019-04-11T08:53:59.792Z,101728.89
2019-04-11T08:58:21.138Z,101743.94
2019-04-11T09:02:49.126Z,101742.37
2019-04-11T09:06:52.413Z,101756.89
2019-04-11T09:11:22.535Z,101750.28
2019-04-11T09:15:43.262Z,101745.66
2019-04-11T09:20:05.329Z,101742.80
2019-04-11T09:24:16.737Z,101740.05
2019-04-11T09:28:39.615Z,101752.03
2019-04-11T09:32:54.906Z,101752.09
2019-04-11T09:37:17.643Z,101758.46
2019-04-11T09:41:40.683Z,101754.40
2019-04-11T09:46:06.017Z,101754.51
2019-04-11T09:50:10.169Z,101755.47
2019-04-11T09:54:30.748Z,101754.48
2019-04-11T09:58:33.719Z,101752.25
2019-04-11T10:03:01.267Z,101755.72
2019-04-11T10:07:35.895Z,101754.90
2019-04-11T10:12:02.498Z,101761.80
2019-04-11T10:16:35.811Z,101759.98
2019-04-11T10:20:48.770Z,101760.13
2019-04-11T10:25:23.331Z,101756.25
2019-04-11T10:29:46.946Z,101756.53
2019-04-11T10:34:19.859Z,101754.28
2019-04-11T10:38:24.521Z,101760.12
2019-04-11T10:42:51.896Z,101770.23
2019-04-11T10:47:18.036Z,101765.55
2019-04-11T10:51:52.098Z,101767.44
2019-04-11T10:56:18.160Z,101772.06
2019-04-11T11:00:53.659Z,101768.13
2019-04-11T11:04:59.048Z,101783.33
2019-04-11T11:09:38.852Z,101774.22
2019-04-11T11:14:10.232Z,101770.52
2019-04-11T11:19:20.657Z,101775.48
2019-04-11T11:23:26.875Z,101772.34
2019-04-11T11:27:48.020Z,101781.30
2019-04-11T11:32:11.184Z,101788.84
2019-04-11T11:36:48.121Z,101782.17
2019-04-11T11:41:25.654Z,101781.98
2019-04-11T11:45:55.565Z,101779.20
2019-04-11T11:50:02.722Z,101772.59
2019-04-11T11:54:24.419Z,101783.31
2019-04-11T11:58:56.162Z,101778.85
2019-04-11T12:03:29.988Z,101779.02
2019-04-11T12:07:49.047Z,101790.25
2019-04-11T12:12:12.031Z,101782.98
2019-04-11T12:16:30.532Z,101783.05
2019-04-11T12:20:55.578Z,101799.19
2019-04-11T12:25:09.179Z,101801.71
2019-04-11T12:29:34.606Z,101801.56
2019-04-11T12:34:05.959Z,101810.97
2019-04-11T12:38:20.459Z,101816.66
2019-04-11T12:42:39.099Z,101824.70
2019-04-11T12:47:16.795Z,101812.95
2019-04-11T12:51:48.192Z,101819.21
2019-04-11T12:56:17.957Z,101820.34
2019-04-11T13:00:50.747Z,101832.12
2019-04-11T13:05:02.884Z,101819.61
2019-04-11T13:09:38.689Z,101820.89
2019-04-11T13:14:02.767Z,101818.29
2019-04-11T13:18:35.230Z,101817.77
2019-04-11T13:23:00.790Z,101818.56
2019-04-11T13:27:33.873Z,101824.55
2019-04-11T13:31:57.403Z,101827.69
2019-04-11T13:36:18.596Z,101817.69
2019-04-11T13:40:55.358Z,101815.70
2019-04-11T13:45:12.762Z,101824.78
2019-04-11T13:49:49.528Z,101821.34
2019-04-11T13:54:12.011Z,101825.91
2019-04-11T13:58:49.888Z,101825.33
2019-04-11T14:03:28.889Z,101831.53
2019-04-11T14:07:49.103Z,101831.39
2019-04-11T14:12:12.424Z,101826.69
2019-04-11T14:16:19.369Z,101822.53
2019-04-11T14:20:44.795Z,101831.58
2019-04-11T14:25:21.977Z,101834.03
2019-04-11T14:29:54.981Z,101840.11
2019-04-11T14:34:13.508Z,101840.77
2019-04-11T14:38:24.488Z,101837.25
2019-04-11T14:42:46.516Z,101836.87
2019-04-11T14:47:23.314Z,101841.12
2019-04-11T14:51:59.690Z,101842.74
2019-04-11T14:56:10.562Z,101834.11
2019-04-11T15:00:32.105Z,101839.70
2019-04-11T15:04:55.281Z,101838.02
2019-04-11T15:09:22.338Z,101836.62
2019-04-11T15:13:27.690Z,101837.44
2019-04-11T15:17:35.610Z,101842.30
2019-04-11T15:21:57.039Z,101839.80
2019-04-11T15:26:24.415Z,101832.63
2019-04-11T15:30:27.631Z,101843.76
2019-04-11T15:34:41.264Z,101839.63
2019-04-11T15:39:05.365Z,101848.67
2019-04-11T15:43:42.270Z,101849.61
2019-04-11T15:47:50.172Z,101850.03
2019-04-11T15:51:59.310Z,101849.94
2019-04-11T15:56:19.301Z,101858.41
2019-04-11T16:00:56.390Z,101867.56
2019-04-11T16:05:26.936Z,101868.92
2019-04-11T16:09:29.425Z,101871.07
2019-04-11T16:13:39.791Z,101872.07
2019-04-11T16:17:59.799Z,101879.19
2019-04-11T16:22:13.132Z,101884.16
2019-04-11T16:26:20.533Z,101891.83
2019-04-11T16:30:23.134Z,101897.54
2019-04-11T16:34:48.745Z,101895.12
2019-04-11T16:39:11.736Z,101906.58
2019-04-11T16:43:15.350Z,101914.02
2019-04-11T16:47:37.380Z,101911.10
2019-04-11T16:51:40.387Z,101913.98
2019-04-11T16:55:44.437Z,101925.18
2019-04-11T16:59:50.299Z,101929.97
2019-04-11T17:03:55.136Z,101938.14
2019-04-11T17:08:20.486Z,101942.33
2019-04-11T17:12:27.419Z,101952.69
2019-04-11T17:16:31.009Z,101951.62
2019-04-11T17:20:36.187Z,101955.78
2019-04-11T17:24:38.514Z,101962.09
2019-04-11T17:28:43.354Z,101969.03
2019-04-11T17:32:50.354Z,101981.57
2019-04-11T17:36:53.283Z,101987.16
2019-04-11T17:40:55.864Z,101989.99
2019-04-11T17:44:59.012Z,101996.55
2019-04-11T17:49:01.504Z,102000.59
2019-04-11T17:53:05.686Z,102006.11
2019-04-11T17:57:08.237Z,102012.20
2019-04-11T18:01:10.905Z,102016.72
2019-04-11T18:05:16.710Z,102018.12
2019-04-11T18:09:20.467Z,102020.47
2019-04-11T18:13:22.185Z,102028.89
2019-04-11T18:17:26.066Z,102030.25
2019-04-11T18:21:28.473Z,102038.45
2019-04-11T18:25:30.910Z,102042.95
2019-04-11T18:29:33.656Z,102044.35
2019-04-11T18:33:36.333Z,102039.24
2019-04-11T18:37:39.142Z,102043.17
2019-04-11T18:41:41.873Z,102043.52
2019-04-11T18:45:44.340Z,102050.11
2019-04-11T18:49:47.102Z,102059.02
2019-04-11T18:53:49.730Z,102058.84
2019-04-11T18:57:52.254Z,102060.16
2019-04-11T19:01:54.828Z,102068.64
2019-04-11T19:05:57.307Z,102070.78
2019-04-11T19:10:00.043Z,102077.09
2019-04-11T19:14:02.788Z,102079.85
2019-04-11T19:18:07.088Z,102089.99
2019-04-11T19:22:09.958Z,102091.84
2019-04-11T19:26:14.590Z,102091.91
2019-04-11T19:30:16.954Z,102105.91
2019-04-11T19:34:19.369Z,102104.33
2019-04-11T19:38:30.412Z,102106.50
2019-04-11T19:42:32.893Z,102103.05
2019-04-11T19:46:35.524Z,102106.97
2019-04-11T19:50:38.970Z,102107.02
2019-04-11T19:54:41.558Z,102107.02
2019-04-11T19:58:44.031Z,102112.80
2019-04-11T20:02:46.658Z,102113.72
2019-04-11T20:06:49.199Z,102107.63
2019-04-11T20:10:51.862Z,102105.03
2019-04-11T20:14:54.380Z,102109.44
2019-04-11T20:18:58.674Z,102109.03
2019-04-11T20:23:01.310Z,102115.58
2019-04-11T20:27:03.934Z,102118.60
2019-04-11T20:31:06.464Z,102124.31
2019-04-11T20:35:10.145Z,102123.00
2019-04-11T20:39:15.295Z,102132.66
2019-04-11T20:43:17.073Z,102132.28
2019-04-11T20:47:19.692Z,102137.12
2019-04-11T20:51:22.537Z,102136.27
2019-04-11T20:55:24.968Z,102146.73
2019-04-11T20:59:34.580Z,102148.52
2019-04-11T21:03:31.582Z,102156.38
2019-04-11T21:07:34.138Z,102156.37
2019-04-11T21:11:37.271Z,102160.27
2019-04-11T21:15:39.833Z,102165.06
2019-04-11T21:19:43.573Z,102168.59
2019-04-11T21:23:46.224Z,102166.86
2019-04-11T21:27:48.753Z,102170.39
2019-04-11T21:31:51.582Z,102168.67
2019-04-11T21:35:53.941Z,102171.30
2019-04-11T21:39:56.567Z,102173.45
2019-04-11T21:43:59.117Z,102173.50
2019-04-11T21:48:01.729Z,102183.08
2019-04-11T21:52:04.123Z,102185.70
2019-04-11T21:56:06.842Z,102187.89
2019-04-11T22:00:15.023Z,102191.39
2019-04-11T22:04:19.366Z,102194.42
2019-04-11T22:08:22.125Z,102196.17
2019-04-11T22:12:24.857Z,102193.57
2019-04-11T22:16:27.378Z,102194.00
2019-04-11T22:20:30.219Z,102199.22
2019-04-11T22:24:32.753Z,102201.39
2019-04-11T22:28:35.318Z,102200.98
2019-04-11T22:32:37.777Z,102204.01
2019-04-11T22:36:40.375Z,102213.13
2019-04-11T22:40:42.818Z,102208.38
2019-04-11T22:44:45.529Z,102213.15
2019-04-11T22:48:48.110Z,102213.15
2019-04-11T22:52:50.725Z,102207.06
2019-04-11T22:56:53.198Z,102204.45
2019-04-11T23:00:55.711Z,102214.88
2019-04-11T23:04:58.175Z,102224.86
2019-04-11T23:09:00.778Z,102223.99
2019-04-11T23:13:04.877Z,102229.20
2019-04-11T23:17:07.494Z,102230.50
2019-04-11T23:21:11.859Z,102234.39
2019-04-11T23:25:14.638Z,102233.95
2019-04-11T23:29:17.093Z,102237.84
2019-04-11T23:33:21.459Z,102243.05
2019-04-11T23:37:23.876Z,102239.55
2019-04-11T23:41:27.465Z,102240.43
2019-04-11T23:45:30.292Z,102239.54
2019-04-11T23:49:32.926Z,102241.27
2019-04-11T23:53:35.546Z,102241.69
2019-04-11T23:57:38.095Z,102246.45
